Time;durP1;ratioP1;P1;durP2;ratioP2;P2;SDS_P1;SDS_P2;PMS_P1;PMS_P2;Temp;Humidity;BMP_temperature;BMP_pressure;BME280_temperature;BME280_humidity;BME280_pressure;Samples;Min_cycle;Max_cycle;Signal;HPM_P1;HPM_P2
2023/02/04 00:02:08;;;;;;;;;;;;;;;6.95;47.33;98702.97;4940875;29;19922;-74
2023/02/04 00:04:34;;;;;;;;;;;;;;;6.95;47.08;98705.56;4940388;29;19957;-73
2023/02/04 00:06:59;;;;;;;;;;;;;;;6.95;47.11;98701.19;4940534;29;19922;-73
2023/02/04 00:09:24;;;;;;;;;;;;;;;6.93;47.03;98684.88;4924275;29;19918;-73
2023/02/04 00:11:50;;;;;;;;;;;;;;;6.93;47.25;98684.06;4940340;29;19918;-73
2023/02/04 00:14:15;;;;;;;;;;;;;;;6.93;47.19;98687.47;4940471;29;20448;-73
2023/02/04 00:16:40;;;;;;;;;;;;;;;6.93;47.10;98678.88;4957599;29;20057;-73
2023/02/04 00:19:06;;;;;;;;;;;;;;;6.92;47.50;98674.59;4940359;29;19918;-72
2023/02/04 00:21:31;;;;;;;;;;;;;;;6.92;47.87;98670.22;4957686;29;19918;-73
2023/02/04 00:23:56;;;;;;;;;;;;;;;6.92;47.38;98665.03;4957294;29;19941;-72
2023/02/04 00:26:21;;;;;;;;;;;;;;;6.91;47.49;98654.75;4939996;29;20486;-72
2023/02/04 00:28:47;;;;;;;;;;;;;;;6.91;47.59;98658.22;4957479;29;19923;-73
2023/02/04 00:31:12;;;;;;;;;;;;;;;6.91;47.71;98649.56;4957439;29;19922;-73
2023/02/04 00:33:37;;;;;;;;;;;;;;;6.92;47.22;98653.84;4956896;29;19930;-74
2023/02/04 00:36:03;;;;;;;;;;;;;;;6.91;47.03;98647.81;4955867;28;20013;-74
2023/02/04 00:38:28;;;;;;;;;;;;;;;6.91;47.03;98641.78;4939227;28;19925;-74
2023/02/04 00:40:53;;;;;;;;;;;;;;;6.92;47.30;98643.47;4939392;29;20370;-75
2023/02/04 00:43:19;;;;;;;;;;;;;;;6.91;47.13;98645.22;4955892;28;19919;-74
2023/02/04 00:45:44;;;;;;;;;;;;;;;6.92;47.70;98644.28;4940053;29;19924;-74
2023/02/04 00:48:09;;;;;;;;;;;;;;;6.93;47.13;98640.78;4939981;29;19922;-74
2023/02/04 00:50:38;;;;;;;;;;;;;;;6.93;47.12;98645.97;4939025;29;19957;-75
2023/02/04 00:53:04;;;;;;;;;;;;;;;6.94;47.02;98634.66;4956530;29;19978;-75
2023/02/04 00:55:29;;;;;;;;;;;;;;;6.94;47.34;98639.84;4939102;29;19954;-75
2023/02/04 00:57:54;;;;;;;;;;;;;;;6.93;47.23;98640.78;4956516;29;19918;-75
2023/02/04 01:00:20;;;;;;;;;;;;;;;6.94;46.89;98628.63;4956567;29;19918;-75
2023/02/04 01:02:45;;;;;;;;;;;;;;;6.93;47.30;98620.00;4939229;29;19919;-75
2023/02/04 01:05:10;;;;;;;;;;;;;;;6.94;46.91;98621.69;4939329;29;20381;-75
2023/02/04 01:07:36;;;;;;;;;;;;;;;6.94;47.28;98613.91;4956253;29;20313;-75
2023/02/04 01:10:01;;;;;;;;;;;;;;;6.93;47.32;98604.44;4956433;29;19925;-74
2023/02/04 01:12:27;;;;;;;;;;;;;;;6.93;47.26;98603.63;4951821;29;19933;-75
2023/02/04 01:14:53;;;;;;;;;;;;;;;6.94;46.92;98603.53;4938029;29;19961;-74
2023/02/04 01:17:18;;;;;;;;;;;;;;;6.92;46.84;98597.56;4954857;29;20355;-74
2023/02/04 01:19:44;;;;;;;;;;;;;;;6.94;47.64;98594.88;4937718;29;19962;-74
2023/02/04 01:22:09;;;;;;;;;;;;;;;6.93;47.29;98586.28;4954953;29;20001;-75
2023/02/04 01:24:34;;;;;;;;;;;;;;;6.94;47.18;98589.69;4937360;29;20314;-75
2023/02/04 01:27:00;;;;;;;;;;;;;;;6.95;47.39;98587.00;4953504;29;19926;-75
2023/02/04 01:29:25;;;;;;;;;;;;;;;6.95;47.19;98578.41;4921607;29;20382;-75
2023/02/04 01:31:50;;;;;;;;;;;;;;;6.95;46.92;98576.63;4954587;29;19922;-75
2023/02/04 01:34:15;;;;;;;;;;;;;;;6.97;47.07;98564.38;4954689;29;19927;-75
2023/02/04 01:36:41;;;;;;;;;;;;;;;6.98;46.98;98560.03;4937420;29;20030;-76
2023/02/04 01:39:06;;;;;;;;;;;;;;;6.96;47.10;98556.69;4936476;29;19926;-76
2023/02/04 01:41:31;;;;;;;;;;;;;;;6.96;47.13;98560.13;4954272;29;19918;-76
2023/02/04 01:43:57;;;;;;;;;;;;;;;6.95;47.20;98561.06;4920572;29;19922;-75
2023/02/04 01:46:23;;;;;;;;;;;;;;;6.96;47.58;98556.69;4954176;29;19941;-76
2023/02/04 01:48:48;;;;;;;;;;;;;;;6.96;47.48;98560.13;4953129;29;20283;-76
2023/02/04 01:51:14;;;;;;;;;;;;;;;6.97;46.73;98554.00;4953264;28;20032;-76
2023/02/04 01:53:40;;;;;;;;;;;;;;;6.96;46.85;98549.75;4935954;29;20322;-74
2023/02/04 01:56:16;;;;;;;;;;;;;;;6.95;47.32;98542.88;4920758;29;19980;-75
2023/02/04 01:58:41;;;;;;;;;;;;;;;6.95;46.70;98534.28;4954008;29;19922;-73
2023/02/04 02:01:13;;;;;;;;;;;;;;;6.96;47.18;98538.50;4952845;29;19980;-74
2023/02/04 02:03:38;;;;;;;;;;;;;;;6.94;47.06;98530.84;4954834;29;20356;-74
2023/02/04 02:06:04;;;;;;;;;;;;;;;6.94;47.34;98530.84;4955426;29;19958;-74
2023/02/04 02:08:30;;;;;;;;;;;;;;;6.92;46.55;98531.88;4954121;29;19923;-74
2023/02/04 02:10:55;;;;;;;;;;;;;;;6.93;46.92;98528.38;4955150;29;19918;-74
2023/02/04 02:13:20;;;;;;;;;;;;;;;6.91;47.14;98520.69;4954376;29;19925;-74
2023/02/04 02:15:46;;;;;;;;;;;;;;;6.90;47.10;98516.41;4955707;29;19918;-74
2023/02/04 02:18:11;;;;;;;;;;;;;;;6.89;47.11;98522.50;4954213;29;19919;-75
2023/02/04 02:20:36;;;;;;;;;;;;;;;6.87;46.93;98514.84;4953759;29;20378;-74
2023/02/04 02:23:17;;;;;;;;;;;;;;;6.88;47.18;98513.91;4953670;29;19919;-74
2023/02/04 02:25:42;;;;;;;;;;;;;;;6.86;47.05;98514.94;4953654;29;20005;-74
2023/02/04 02:28:11;;;;;;;;;;;;;;;6.85;46.66;98508.91;4953914;29;20016;-74
2023/02/04 02:30:37;;;;;;;;;;;;;;;6.84;46.83;98502.06;4938054;29;19922;-74
2023/02/04 02:33:02;;;;;;;;;;;;;;;6.83;46.89;98504.75;4954940;28;19930;-74
2023/02/04 02:35:27;;;;;;;;;;;;;;;6.83;46.57;98494.38;4954804;29;19922;-74
2023/02/04 02:37:53;;;;;;;;;;;;;;;6.83;46.83;98491.78;4955068;29;19918;-74
2023/02/04 02:40:18;;;;;;;;;;;;;;;6.82;46.57;98487.53;4954845;29;19925;-74
2023/02/04 02:42:44;;;;;;;;;;;;;;;6.81;46.54;98481.50;4953487;29;19919;-74
2023/02/04 02:45:15;;;;;;;;;;;;;;;6.81;46.85;98476.31;4953597;29;19970;-74
2023/02/04 02:47:40;;;;;;;;;;;;;;;6.82;47.28;98471.97;4953503;29;19930;-74
2023/02/04 02:50:06;;;;;;;;;;;;;;;6.82;46.84;98471.97;4953396;29;19918;-74
2023/02/04 02:52:31;;;;;;;;;;;;;;;6.81;46.54;98476.31;4954884;29;19925;-74
2023/02/04 02:54:57;;;;;;;;;;;;;;;6.80;47.09;98477.25;4953479;28;20287;-74
2023/02/04 02:57:22;;;;;;;;;;;;;;;6.80;47.22;98471.22;4953769;29;19925;-74
2023/02/04 02:59:47;;;;;;;;;;;;;;;6.79;47.18;98461.78;4953067;29;19919;-74
2023/02/04 03:02:13;;;;;;;;;;;;;;;6.78;47.11;98454.94;4953153;28;19919;-73
2023/02/04 03:04:40;;;;;;;;;;;;;;;6.76;47.57;98446.41;4953442;29;19919;-74
2023/02/04 03:07:05;;;;;;;;;;;;;;;6.76;47.39;98452.44;4953433;29;19918;-74
2023/02/04 03:09:31;;;;;;;;;;;;;;;6.75;47.31;98445.56;4953344;29;19922;-74
2023/02/04 03:11:56;;;;;;;;;;;;;;;6.75;47.50;98436.97;4953534;29;20433;-74
2023/02/04 03:14:23;;;;;;;;;;;;;;;6.73;47.45;98442.25;4953544;29;19933;-75
2023/02/04 03:16:48;;;;;;;;;;;;;;;6.73;47.25;98433.66;4953429;29;20444;-74
2023/02/04 03:19:13;;;;;;;;;;;;;;;6.73;47.69;98425.88;4953255;29;19918;-75
2023/02/04 03:21:39;;;;;;;;;;;;;;;6.73;47.52;98429.28;4953771;29;19947;-74
2023/02/04 03:24:04;;;;;;;;;;;;;;;6.72;47.68;98426.78;4954743;29;19919;-74
2023/02/04 03:26:29;;;;;;;;;;;;;;;6.70;47.17;98427.75;4954498;29;19923;-74
2023/02/04 03:28:55;;;;;;;;;;;;;;;6.69;47.96;98420.88;4953143;29;19918;-74
2023/02/04 03:31:20;;;;;;;;;;;;;;;6.72;47.98;98419.00;4953146;29;19922;-74
2023/02/04 03:33:45;;;;;;;;;;;;;;;6.72;47.97;98412.06;4954759;29;19977;-74
2023/02/04 03:36:11;;;;;;;;;;;;;;;6.72;47.74;98411.22;4953012;29;19919;-74
2023/02/04 03:38:36;;;;;;;;;;;;;;;6.71;47.45;98402.63;4953272;29;19925;-75
2023/02/04 03:41:01;;;;;;;;;;;;;;;6.70;47.94;98403.53;4953125;29;20286;-75
2023/02/04 03:43:27;;;;;;;;;;;;;;;6.69;47.43;98394.94;4953586;28;19918;-74
2023/02/04 03:45:52;;;;;;;;;;;;;;;6.69;47.67;98400.13;4954583;29;19993;-74
2023/02/04 03:48:17;;;;;;;;;;;;;;;6.69;47.57;98394.94;4952846;29;19962;-75
2023/02/04 03:50:43;;;;;;;;;;;;;;;6.70;48.08;98394.03;4953077;29;19985;-75
2023/02/04 03:53:08;;;;;;;;;;;;;;;6.69;48.07;98394.13;4954328;29;19929;-75
2023/02/04 03:55:34;;;;;;;;;;;;;;;6.70;48.03;98390.56;4952629;28;19997;-75
2023/02/04 03:58:00;;;;;;;;;;;;;;;6.68;48.27;98389.84;4954243;29;19953;-74
2023/02/04 04:00:25;;;;;;;;;;;;;;;6.66;47.93;98378.75;4954050;29;19919;-75
2023/02/04 04:02:51;;;;;;;;;;;;;;;6.65;48.21;98372.72;4953917;29;19978;-75
2023/02/04 04:05:16;;;;;;;;;;;;;;;6.65;48.02;98371.91;4953875;29;20275;-75
2023/02/04 04:07:41;;;;;;;;;;;;;;;6.64;48.41;98372.81;4954462;29;19919;-74
2023/02/04 04:10:07;;;;;;;;;;;;;;;6.63;48.30;98374.59;4954070;29;20303;-75
2023/02/04 04:12:32;;;;;;;;;;;;;;;6.62;48.04;98377.28;4953088;29;19922;-75
2023/02/04 04:14:57;;;;;;;;;;;;;;;6.62;48.24;98374.69;4954525;28;20387;-75
2023/02/04 04:17:22;;;;;;;;;;;;;;;6.61;48.00;98366.09;4957978;29;19918;-75
2023/02/04 04:19:48;;;;;;;;;;;;;;;6.60;48.30;98372.19;4956257;29;19926;-74
2023/02/04 04:22:13;;;;;;;;;;;;;;;6.60;47.70;98363.59;4956596;29;19919;-75
2023/02/04 04:24:39;;;;;;;;;;;;;;;6.59;48.33;98370.53;4956346;29;20295;-75
2023/02/04 04:27:04;;;;;;;;;;;;;;;6.58;48.42;98361.09;4956264;29;19919;-75
2023/02/04 04:29:29;;;;;;;;;;;;;;;6.57;48.44;98351.66;4956482;29;19945;-74
2023/02/04 04:31:54;;;;;;;;;;;;;;;6.56;48.30;98349.97;4955998;28;19922;-74
2023/02/04 04:34:20;;;;;;;;;;;;;;;6.56;48.19;98355.16;4957257;29;19993;-75
2023/02/04 04:36:45;;;;;;;;;;;;;;;6.55;48.46;98358.72;4955912;29;19919;-77
2023/02/04 04:39:10;;;;;;;;;;;;;;;6.54;48.66;98351.03;4957331;29;19919;-74
2023/02/04 04:41:36;;;;;;;;;;;;;;;6.54;48.33;98364.81;4957370;29;20346;-75
2023/02/04 04:44:01;;;;;;;;;;;;;;;6.54;48.22;98357.03;4955889;29;19919;-74
2023/02/04 04:46:26;;;;;;;;;;;;;;;6.53;48.44;98360.56;4955875;29;20017;-75
2023/02/04 04:48:52;;;;;;;;;;;;;;;6.52;48.65;98364.91;4955919;29;19985;-75
2023/02/04 04:51:17;;;;;;;;;;;;;;;6.52;48.30;98359.72;4955812;29;19923;-74
2023/02/04 04:53:42;;;;;;;;;;;;;;;6.51;48.44;98354.66;4956006;29;19918;-74
2023/02/04 04:56:08;;;;;;;;;;;;;;;6.53;48.55;98355.38;4955673;29;20420;-74
2023/02/04 04:58:33;;;;;;;;;;;;;;;6.51;48.58;98362.41;4955786;29;19919;-74
2023/02/04 05:00:58;;;;;;;;;;;;;;;6.51;47.87;98354.66;4956846;29;19918;-73
2023/02/04 05:03:24;;;;;;;;;;;;;;;6.50;48.06;98353.81;4955883;29;19919;-72
2023/02/04 05:05:49;;;;;;;;;;;;;;;6.50;48.15;98359.00;4955542;29;19922;-73
2023/02/04 05:08:15;;;;;;;;;;;;;;;6.50;48.30;98361.59;4956881;29;20380;-73
2023/02/04 05:10:41;;;;;;;;;;;;;;;6.52;48.45;98367.50;4955399;29;19927;-73
2023/02/04 05:13:06;;;;;;;;;;;;;;;6.52;48.15;98367.50;4955845;29;19919;-73
2023/02/04 05:15:32;;;;;;;;;;;;;;;6.53;48.37;98352.78;4955480;29;19925;-73
2023/02/04 05:17:57;;;;;;;;;;;;;;;6.53;48.22;98350.19;4955267;29;20386;-73
2023/02/04 05:20:23;;;;;;;;;;;;;;;6.52;48.51;98354.53;4955200;29;19987;-74
2023/02/04 05:22:48;;;;;;;;;;;;;;;6.52;48.60;98349.34;4955546;29;19918;-75
2023/02/04 05:25:15;;;;;;;;;;;;;;;6.51;47.83;98346.88;4954955;28;20346;-74
2023/02/04 05:27:40;;;;;;;;;;;;;;;6.50;48.38;98353.81;4956437;29;19922;-74
2023/02/04 05:30:06;;;;;;;;;;;;;;;6.50;48.41;98345.22;4955533;29;19977;-76
2023/02/04 05:32:31;;;;;;;;;;;;;;;6.49;48.14;98341.78;4954910;29;19927;-77
2023/02/04 05:34:57;;;;;;;;;;;;;;;6.49;48.53;98343.53;4955024;29;20031;-74
2023/02/04 05:37:22;;;;;;;;;;;;;;;6.49;48.30;98333.19;4956253;29;19918;-74
2023/02/04 05:39:47;;;;;;;;;;;;;;;6.48;48.07;98328.91;4956371;29;19918;-74
2023/02/04 05:42:13;;;;;;;;;;;;;;;6.48;48.09;98328.91;4955056;29;19970;-74
2023/02/04 05:44:38;;;;;;;;;;;;;;;6.48;48.87;98334.09;4954884;29;20421;-77
2023/02/04 05:47:03;;;;;;;;;;;;;;;6.48;48.70;98336.69;4954921;29;19919;-74
2023/02/04 05:49:28;;;;;;;;;;;;;;;6.50;48.75;98340.03;4955006;29;20382;-74
2023/02/04 05:51:54;;;;;;;;;;;;;;;6.50;48.85;98340.03;4954821;29;19925;-74
2023/02/04 05:54:19;;;;;;;;;;;;;;;6.49;48.71;98357.34;4954915;28;19927;-73
2023/02/04 05:56:47;;;;;;;;;;;;;;;6.49;48.77;98357.34;4954687;29;20310;-74
2023/02/04 05:59:13;;;;;;;;;;;;;;;6.48;48.65;98339.28;4954242;29;20366;-74
2023/02/04 06:01:38;;;;;;;;;;;;;;;6.48;48.51;98328.91;4954621;29;19965;-74
2023/02/04 06:04:03;;;;;;;;;;;;;;;6.47;48.97;98325.50;4954696;29;20018;-74
2023/02/04 06:06:29;;;;;;;;;;;;;;;6.47;48.25;98312.53;4955333;29;19925;-74
2023/02/04 06:08:54;;;;;;;;;;;;;;;6.46;48.73;98302.25;4954516;29;19919;-75
2023/02/04 06:11:19;;;;;;;;;;;;;;;6.46;48.82;98294.47;4955860;29;20341;-75
2023/02/04 06:13:45;;;;;;;;;;;;;;;6.47;48.79;98293.56;4954339;29;19925;-75
2023/02/04 06:16:10;;;;;;;;;;;;;;;6.46;48.53;98294.47;4954483;29;20342;-74
2023/02/04 06:18:35;;;;;;;;;;;;;;;6.46;49.09;98299.66;4954471;29;19926;-74
2023/02/04 06:21:03;;;;;;;;;;;;;;;6.45;48.87;98304.03;4954331;29;19919;-75
2023/02/04 06:23:29;;;;;;;;;;;;;;;6.45;49.11;98303.19;4954207;29;19918;-75
2023/02/04 06:25:55;;;;;;;;;;;;;;;6.45;49.02;98301.44;4954340;29;19925;-79
2023/02/04 06:28:22;;;;;;;;;;;;;;;6.46;48.54;98300.50;4953929;29;20078;-75
2023/02/04 06:30:48;;;;;;;;;;;;;;;6.45;48.62;98295.41;4954008;29;19985;-72
2023/02/04 06:33:13;;;;;;;;;;;;;;;6.45;48.83;98309.22;4953397;28;19923;-72
2023/02/04 06:35:39;;;;;;;;;;;;;;;6.45;49.01;98317.00;4954525;29;20306;-72
2023/02/04 06:38:04;;;;;;;;;;;;;;;6.46;48.91;98328.19;4953704;28;19925;-71
2023/02/04 06:40:29;;;;;;;;;;;;;;;6.46;49.09;98318.63;4955542;29;19926;-72
2023/02/04 06:42:54;;;;;;;;;;;;;;;6.48;48.97;98332.34;4955129;29;19918;-73
2023/02/04 06:45:20;;;;;;;;;;;;;;;6.49;48.87;98328.00;4953803;29;19922;-76
2023/02/04 06:47:45;;;;;;;;;;;;;;;6.48;49.06;98329.75;4954089;29;19918;-69
2023/02/04 06:50:11;;;;;;;;;;;;;;;6.48;49.14;98324.56;4952755;28;19997;-76
2023/02/04 06:52:36;;;;;;;;;;;;;;;6.52;48.58;98327.78;4954401;28;19973;-80
2023/02/04 06:55:01;;;;;;;;;;;;;;;6.55;49.09;98324.16;5274274;23;20011;-79
2023/02/04 06:57:27;;;;;;;;;;;;;;;6.86;65.97;98334.16;4996325;28;20342;-77
2023/02/04 06:59:52;;;;;;;;;;;;;;;6.99;61.79;98333.31;4981134;28;19922;-75
2023/02/04 07:02:17;;;;;;;;;;;;;;;7.01;58.22;98340.06;4977082;28;19921;-73
2023/02/04 07:04:43;;;;;;;;;;;;;;;7.03;57.17;98326.97;4983925;28;19921;-73
2023/02/04 07:07:09;;;;;;;;;;;;;;;7.48;71.01;98323.91;4986400;28;20051;-74
2023/02/04 07:09:34;;;;;;;;;;;;;;;7.70;69.51;98320.59;5003570;28;19922;-73
2023/02/04 07:11:59;;;;;;;;;;;;;;;7.67;63.48;98324.28;4977328;28;19923;-75
2023/02/04 07:14:24;;;;;;;;;;;;;;;7.66;61.94;98324.38;4977854;28;19997;-74
2023/02/04 07:16:50;;;;;;;;;;;;;;;7.60;60.94;98328.22;4994114;28;20008;-75
2023/02/04 07:19:15;;;;;;;;;;;;;;;7.54;59.80;98329.50;4992785;28;20307;-77
2023/02/04 07:21:40;;;;;;;;;;;;;;;7.49;58.71;98328.16;4977683;28;19918;-77
2023/02/04 07:24:06;;;;;;;;;;;;;;;7.48;58.95;98332.53;4977291;28;19921;-81
2023/02/04 07:26:33;;;;;;;;;;;;;;;7.49;60.14;98328.16;4994342;28;19976;-79
2023/02/04 07:28:58;;;;;;;;;;;;;;;7.47;59.61;98330.88;4994429;28;19919;-79
2023/02/04 07:31:23;;;;;;;;;;;;;;;7.44;58.76;98333.69;5011332;28;19917;-69
2023/02/04 07:33:49;;;;;;;;;;;;;;;7.42;58.72;98333.78;5010818;28;19953;-69
2023/02/04 07:36:14;;;;;;;;;;;;;;;7.42;58.04;98340.75;5009331;28;19967;-70
2023/02/04 07:38:39;;;;;;;;;;;;;;;7.41;57.51;98344.28;5009970;28;19917;-69
2023/02/04 07:41:04;;;;;;;;;;;;;;;7.36;57.31;98342.00;5002370;28;19925;-68
2023/02/04 07:43:30;;;;;;;;;;;;;;;7.32;56.59;98344.91;5030633;28;20307;-69
2023/02/04 07:45:55;;;;;;;;;;;;;;;7.41;62.30;98347.69;5013825;28;19948;-76
2023/02/04 07:48:21;;;;;;;;;;;;;;;7.49;61.52;98339.38;5035618;28;19921;-76
2023/02/04 07:50:46;;;;;;;;;;;;;;;7.49;60.96;98343.75;5033924;28;19928;-75
2023/02/04 07:53:12;;;;;;;;;;;;;;;7.56;64.39;98330.22;5034329;28;19932;-67
2023/02/04 07:55:37;;;;;;;;;;;;;;;7.60;62.14;98326.44;5016245;28;19921;-69
2023/02/04 07:58:02;;;;;;;;;;;;;;;7.57;60.85;98321.50;5034282;28;19918;-68
2023/02/04 08:00:28;;;;;;;;;;;;;;;7.56;59.45;98319.00;5016986;28;19925;-68
2023/02/04 08:02:53;;;;;;;;;;;;;;;7.51;58.82;98323.69;5033969;28;20441;-69
2023/02/04 08:05:18;;;;;;;;;;;;;;;7.50;58.48;98324.63;5016237;28;19921;-69
2023/02/04 08:07:44;;;;;;;;;;;;;;;7.50;58.18;98330.66;5034329;28;19918;-68
2023/02/04 08:10:09;;;;;;;;;;;;;;;7.49;57.68;98321.19;5031483;28;19913;-69
2023/02/04 08:12:35;;;;;;;;;;;;;;;7.56;57.31;98312.03;4996742;28;19919;-69
2023/02/04 08:15:00;;;;;;;;;;;;;;;7.66;56.87;98324.38;5014465;28;19971;-69
2023/02/04 08:17:26;;;;;;;;;;;;;;;7.78;55.78;98321.75;5014156;28;20403;-67
2023/02/04 08:19:51;;;;;;;;;;;;;;;7.90;55.24;98312.22;4996360;28;19957;-69
2023/02/04 08:22:16;;;;;;;;;;;;;;;8.08;54.44;98304.88;4995936;28;19917;-70
2023/02/04 08:24:41;;;;;;;;;;;;;;;8.34;53.90;98309.94;4996695;28;19922;-69
2023/02/04 08:27:07;;;;;;;;;;;;;;;9.12;65.08;98302.38;5011844;28;19964;-70
2023/02/04 08:29:32;;;;;;;;;;;;;;;9.91;62.85;98299.66;5004949;28;20303;-69
2023/02/04 08:31:57;;;;;;;;;;;;;;;10.94;57.16;98293.81;4994185;28;19918;-70
2023/02/04 08:34:23;;;;;;;;;;;;;;;11.70;53.87;98288.16;4976651;28;19917;-69
2023/02/04 08:36:48;;;;;;;;;;;;;;;12.18;51.10;98281.31;4977193;28;19924;-69
2023/02/04 08:39:13;;;;;;;;;;;;;;;12.83;48.81;98263.13;4976629;28;19917;-71
2023/02/04 08:41:38;;;;;;;;;;;;;;;13.60;46.12;98262.97;5023197;28;19949;-69
2023/02/04 08:44:04;;;;;;;;;;;;;;;14.20;44.36;98251.03;5033148;28;19923;-71
2023/02/04 08:46:29;;;;;;;;;;;;;;;14.58;42.62;98265.59;5033950;28;19923;-69
2023/02/04 08:48:54;;;;;;;;;;;;;;;15.35;39.64;98267.47;5015579;28;20372;-70
2023/02/04 08:51:20;;;;;;;;;;;;;;;15.51;49.01;98272.81;5015340;28;19917;-70
2023/02/04 08:53:45;;;;;;;;;;;;;;;15.55;50.22;98273.31;5015934;28;19936;-70
2023/02/04 08:56:15;;;;;;;;;;;;;;;15.84;48.25;98264.19;4998425;28;19921;-68
2023/02/04 08:58:40;;;;;;;;;;;;;;;15.84;48.13;98261.56;5033501;28;19924;-69
2023/02/04 09:01:06;;;;;;;;;;;;;;;16.13;47.03;98255.84;5014780;28;20019;-70
2023/02/04 09:03:31;;;;;;;;;;;;;;;16.38;45.11;98256.66;5032699;28;19917;-71
2023/02/04 09:05:56;;;;;;;;;;;;;;;16.28;43.81;98254.16;5015497;28;20287;-71
2023/02/04 09:08:22;;;;;;;;;;;;;;;16.24;45.81;98262.56;5033370;28;19917;-74
2023/02/04 09:10:47;;;;;;;;;;;;;;;16.02;45.29;98274.56;5025700;28;19928;-70
2023/02/04 09:13:13;;;;;;;;;;;;;;;15.79;44.49;98264.66;4989627;28;19936;-79
2023/02/04 09:15:38;;;;;;;;;;;;;;;15.46;42.81;98263.75;4978060;28;20392;-73
2023/02/04 09:18:12;;;;;;;;;;;;;;;15.17;41.58;98260.50;4978256;28;19924;-75
2023/02/04 09:20:38;;;;;;;;;;;;;;;14.92;41.15;98259.56;4995452;28;19917;-73
2023/02/04 09:23:05;;;;;;;;;;;;;;;14.81;40.91;98251.97;4982115;28;19919;-73
2023/02/04 09:25:31;;;;;;;;;;;;;;;14.81;40.29;98251.97;4996268;28;20016;-76
2023/02/04 09:27:56;;;;;;;;;;;;;;;14.68;43.70;98243.69;5014700;28;20001;-74
2023/02/04 09:30:21;;;;;;;;;;;;;;;14.89;54.00;98244.13;5014830;28;19918;-73
2023/02/04 09:32:47;;;;;;;;;;;;;;;15.21;59.21;98242.59;4997403;28;19967;-73
2023/02/04 09:35:12;;;;;;;;;;;;;;;15.28;63.61;98248.88;4997292;28;19940;-74
2023/02/04 09:37:37;;;;;;;;;;;;;;;15.43;66.72;98248.28;5014749;28;19921;-74
2023/02/04 09:40:03;;;;;;;;;;;;;;;15.51;67.32;98243.03;5015970;28;19968;-83
2023/02/04 09:42:28;;;;;;;;;;;;;;;15.47;69.31;98231.19;4983061;28;19917;-83
2023/02/04 09:44:53;;;;;;;;;;;;;;;15.59;71.53;98234.34;4997417;28;19918;-82
2023/02/04 09:47:20;;;;;;;;;;;;;;;16.10;71.14;98219.31;4997560;28;20299;-80
2023/02/04 09:49:46;;;;;;;;;;;;;;;16.19;64.22;98209.56;4980748;28;19921;-78
2023/02/04 09:52:12;;;;;;;;;;;;;;;16.49;54.55;98199.31;4997432;28;19924;-78
2023/02/04 09:54:37;;;;;;;;;;;;;;;17.09;50.96;98193.53;5000269;28;20019;-89
2023/02/04 09:57:07;;;;;;;;;;;;;;;16.97;45.53;98192.31;5002117;28;20391;-75
2023/02/04 09:59:32;;;;;;;;;;;;;;;16.03;41.50;98189.34;4996989;28;20017;-74
2023/02/04 10:02:01;;;;;;;;;;;;;;;16.09;39.12;98181.59;4997019;28;20000;-75
2023/02/04 10:04:27;;;;;;;;;;;;;;;17.14;36.83;98171.94;4997111;28;19968;-72
2023/02/04 10:06:52;;;;;;;;;;;;;;;17.84;43.77;98165.72;4996787;28;19969;-75
2023/02/04 10:09:17;;;;;;;;;;;;;;;18.33;35.87;98148.63;4980414;28;20362;-73
2023/02/04 10:11:43;;;;;;;;;;;;;;;18.12;40.61;98146.66;4996393;28;20344;-71
2023/02/04 10:14:11;;;;;;;;;;;;;;;17.80;37.72;98138.00;4980372;28;20383;-76
2023/02/04 10:16:40;;;;;;;;;;;;;;;17.96;34.94;98130.97;4996678;28;19918;-76
2023/02/04 10:19:06;;;;;;;;;;;;;;;17.81;41.90;98133.56;4996697;28;19921;-72
2023/02/04 10:21:33;;;;;;;;;;;;;;;17.54;42.79;98128.66;4980569;28;19925;-73
2023/02/04 10:24:00;;;;;;;;;;;;;;;17.17;44.09;98117.03;4980131;28;20025;-73
2023/02/04 10:26:27;;;;;;;;;;;;;;;16.77;42.11;98116.22;4996382;28;19918;-73
2023/02/04 10:28:59;;;;;;;;;;;;;;;16.34;39.12;98118.38;5013934;28;19981;-72
2023/02/04 10:31:32;;;;;;;;;;;;;;;15.85;41.03;98116.63;4996151;28;19921;-74
2023/02/04 10:34:09;;;;;;;;;;;;;;;15.46;40.79;98114.63;4996478;28;19925;-81
2023/02/04 10:36:35;;;;;;;;;;;;;;;15.18;43.97;98111.47;4996631;28;19918;-76
2023/02/04 10:39:01;;;;;;;;;;;;;;;15.04;47.58;98112.94;5015310;28;19925;-83
2023/02/04 10:41:26;;;;;;;;;;;;;;;15.02;50.02;98109.63;4996413;28;20406;-75
2023/02/04 10:44:09;;;;;;;;;;;;;;;15.04;51.21;98104.22;5013985;28;19925;-77
2023/02/04 10:46:34;;;;;;;;;;;;;;;15.03;49.93;98098.16;4996151;28;19967;-78
2023/02/04 10:48:59;;;;;;;;;;;;;;;15.02;48.37;98097.34;4996007;28;20004;-78
2023/02/04 10:51:25;;;;;;;;;;;;;;;14.94;47.92;98101.75;4996060;28;19928;-79
2023/02/04 10:56:34;;;;;;;;;;;;;;;14.67;46.85;98093.13;4998301;28;19971;-70
2023/02/04 10:58:59;;;;;;;;;;;;;;;14.58;46.60;98092.25;5013674;28;19917;-72
2023/02/04 11:01:24;;;;;;;;;;;;;;;14.51;50.24;98091.22;5013361;28;19918;-73
2023/02/04 11:03:50;;;;;;;;;;;;;;;14.43;48.49;98088.56;4995570;28;19925;-73
2023/02/04 11:06:22;;;;;;;;;;;;;;;14.41;50.14;98082.66;5013539;28;19928;-70
2023/02/04 11:08:49;;;;;;;;;;;;;;;14.44;47.34;98079.72;5013241;28;19921;-71
2023/02/04 11:11:15;;;;;;;;;;;;;;;14.61;45.95;98075.34;5012815;28;20013;-72
2023/02/04 11:13:49;;;;;;;;;;;;;;;14.93;48.37;98073.84;4996037;28;19933;-71
2023/02/04 11:16:25;;;;;;;;;;;;;;;15.13;50.98;98079.59;5013395;28;19924;-70
2023/02/04 11:18:54;;;;;;;;;;;;;;;15.24;50.10;98076.66;4995438;28;19961;-71
2023/02/04 11:21:22;;;;;;;;;;;;;;;15.40;49.58;98067.13;4995531;28;19925;-73
2023/02/04 11:23:48;;;;;;;;;;;;;;;15.53;50.04;98070.09;5012715;28;20346;-73
2023/02/04 11:26:16;;;;;;;;;;;;;;;15.69;49.98;98074.53;4995313;28;19976;-72
2023/02/04 11:28:45;;;;;;;;;;;;;;;15.89;49.64;98065.31;4995728;28;19917;-72
2023/02/04 11:31:25;;;;;;;;;;;;;;;16.08;48.23;98065.91;5013008;28;19979;-73
2023/02/04 11:34:01;;;;;;;;;;;;;;;16.39;47.02;98065.19;4995807;28;19923;-71
2023/02/04 11:36:26;;;;;;;;;;;;;;;16.68;45.74;98059.28;5013131;28;19924;-73
2023/02/04 11:38:51;;;;;;;;;;;;;;;17.00;44.98;98062.78;5013381;28;19917;-70
2023/02/04 11:41:21;;;;;;;;;;;;;;;17.12;44.87;98061.34;5013259;28;19932;-85
2023/02/04 11:43:48;;;;;;;;;;;;;;;17.23;44.71;98048.75;5014471;28;20392;-79
2023/02/04 11:46:15;;;;;;;;;;;;;;;17.33;44.39;98038.78;4979195;28;19925;-72
2023/02/04 11:48:40;;;;;;;;;;;;;;;17.33;44.42;98034.34;4995550;28;19917;-75
2023/02/04 11:51:13;;;;;;;;;;;;;;;17.22;44.10;98031.28;4979122;28;19921;-75
2023/02/04 11:53:38;;;;;;;;;;;;;;;17.10;44.12;98050.16;4979057;28;19922;-75
2023/02/04 11:56:03;;;;;;;;;;;;;;;17.03;43.91;98043.97;4994651;28;20407;-73
2023/02/04 11:58:29;;;;;;;;;;;;;;;16.85;44.58;98041.56;4979178;28;19924;-74
2023/02/04 12:00:55;;;;;;;;;;;;;;;16.72;43.57;98044.78;4995387;28;19983;-80
2023/02/04 12:03:20;;;;;;;;;;;;;;;16.54;42.12;98036.28;5012823;28;20427;-82
2023/02/04 12:05:48;;;;;;;;;;;;;;;16.35;41.60;98040.16;5012742;28;19928;-78
2023/02/04 12:08:23;;;;;;;;;;;;;;;16.12;41.34;98035.66;4995287;28;19917;-81
2023/02/04 12:10:49;;;;;;;;;;;;;;;15.85;41.04;98034.25;4994819;28;19925;-76
2023/02/04 12:13:18;;;;;;;;;;;;;;;15.61;41.38;98027.16;4995211;28;19917;-76
2023/02/04 12:15:50;;;;;;;;;;;;;;;15.41;47.18;98032.78;4995030;28;20015;-76
2023/02/04 12:18:16;;;;;;;;;;;;;;;15.31;45.58;98027.69;4995466;28;19921;-76
2023/02/04 12:20:41;;;;;;;;;;;;;;;15.15;44.21;98025.06;5012689;28;19925;-76
2023/02/04 12:23:07;;;;;;;;;;;;;;;15.04;45.92;98028.00;4994470;28;19918;-77
2023/02/04 12:25:32;;;;;;;;;;;;;;;14.95;45.26;98035.88;5012455;28;20364;-77
2023/02/04 12:27:58;;;;;;;;;;;;;;;14.79;44.75;98022.72;4978518;28;19917;-78
2023/02/04 12:30:24;;;;;;;;;;;;;;;14.70;44.38;98027.13;4973692;28;20417;-79
2023/02/04 12:32:49;;;;;;;;;;;;;;;14.58;43.94;98013.44;4988630;28;19927;-78
2023/02/04 12:35:14;;;;;;;;;;;;;;;14.46;43.90;98015.53;4984324;28;19922;-78
2023/02/04 12:37:40;;;;;;;;;;;;;;;14.39;43.33;98024.19;4991712;28;20016;-76
2023/02/04 12:40:05;;;;;;;;;;;;;;;14.28;43.37;98017.47;4983024;28;19922;-76
2023/02/04 12:42:31;;;;;;;;;;;;;;;14.18;43.48;98022.81;4978814;28;20052;-79
2023/02/04 12:44:56;;;;;;;;;;;;;;;14.09;43.15;98018.53;4962546;28;19918;-77
2023/02/04 12:47:21;;;;;;;;;;;;;;;13.96;42.99;98010.25;4978526;28;19925;-76
2023/02/04 12:49:47;;;;;;;;;;;;;;;13.84;42.73;98007.09;4996340;28;19989;-80